Time;durP1;ratioP1;P1;durP2;ratioP2;P2;SDS_P1;SDS_P2;PMS_P1;PMS_P2;Temp;Humidity;BMP_temperature;BMP_pressure;BME280_temperature;BME280_humidity;BME280_pressure;Samples;Min_cycle;Max_cycle;Signal;HPM_P1;HPM_P2
2022/10/13 05:03:32;;;;;;;22.95;12.70;;;11.60;99.90;;;;;;6210333;23;20080;-75
2022/10/13 05:05:58;;;;;;;25.55;14.38;;;11.60;99.90;;;;;;6222224;23;20064;-78
2022/10/13 05:08:24;;;;;;;29.20;15.07;;;11.50;99.90;;;;;;6172394;23;20004;-75
2022/10/13 05:10:58;;;;;;;26.30;14.48;;;11.50;99.90;;;;;;6222838;23;20267;-75
2022/10/13 05:13:28;;;;;;;24.23;14.30;;;11.40;99.90;;;;;;6223382;23;20015;-76
2022/10/13 05:15:57;;;;;;;23.48;14.27;;;11.40;99.90;;;;;;6223318;23;20024;-74
2022/10/13 05:18:23;;;;;;;30.88;14.88;;;11.30;99.90;;;;;;6223280;23;20008;-74
2022/10/13 05:20:49;;;;;;;29.05;15.40;;;11.30;99.90;;;;;;6197039;23;20350;-72
2022/10/13 05:23:15;;;;;;;23.00;13.30;;;11.30;99.90;;;;;;6223580;23;20008;-74
2022/10/13 05:25:41;;;;;;;25.77;13.88;;;11.30;99.90;;;;;;6222696;23;20008;-74
2022/10/13 05:28:10;;;;;;;30.48;14.43;;;11.30;99.90;;;;;;6223271;23;20000;-74
2022/10/13 05:30:36;;;;;;;24.65;12.38;;;11.30;99.90;;;;;;6222630;23;20226;-75
2022/10/13 05:33:02;;;;;;;21.35;13.18;;;11.40;99.90;;;;;;6225544;23;20278;-74
2022/10/13 05:35:27;;;;;;;23.58;14.10;;;11.50;99.90;;;;;;6199321;23;20189;-74
2022/10/13 05:37:53;;;;;;;25.15;14.40;;;11.50;99.90;;;;;;6198165;23;20191;-74
2022/10/13 05:40:20;;;;;;;25.30;14.30;;;11.60;99.90;;;;;;6223999;23;20008;-76
2022/10/13 05:42:48;;;;;;;22.10;12.82;;;11.70;99.90;;;;;;6224897;23;20077;-74
2022/10/13 05:45:15;;;;;;;25.92;13.57;;;11.80;99.90;;;;;;6225492;23;20201;-74
2022/10/13 05:47:41;;;;;;;30.25;13.32;;;11.90;99.90;;;;;;6224665;23;20042;-74
2022/10/13 05:50:07;;;;;;;21.50;11.45;;;11.90;99.90;;;;;;6223940;23;19993;-75
2022/10/13 05:52:33;;;;;;;16.85;10.23;;;11.90;99.90;;;;;;6224915;23;20060;-74
2022/10/13 05:55:01;;;;;;;22.95;12.70;;;11.90;99.90;;;;;;6225220;23;20005;-74
2022/10/13 05:57:31;;;;;;;22.35;12.02;;;11.90;99.90;;;;;;6225309;23;20076;-74
2022/10/13 06:00:07;;;;;;;20.48;12.20;;;11.80;99.90;;;;;;6224904;23;20005;-78
2022/10/13 06:02:51;;;;;;;26.20;13.05;;;11.90;99.90;;;;;;6240998;23;20012;-75
2022/10/13 06:05:20;;;;;;;23.02;12.43;;;11.90;99.90;;;;;;6255973;22;20000;-74
2022/10/13 06:07:49;;;;;;;21.70;12.55;;;11.90;99.90;;;;;;6254926;22;20333;-75
2022/10/13 06:10:16;;;;;;;22.88;13.68;;;11.90;99.90;;;;;;6255538;22;20015;-74
2022/10/13 06:12:43;;;;;;;20.15;12.45;;;12.00;99.90;;;;;;6254925;22;20000;-74
2022/10/13 06:15:09;;;;;;;24.13;12.43;;;12.10;99.90;;;;;;6254274;23;20064;-75
2022/10/13 06:17:36;;;;;;;22.13;12.52;;;12.10;99.90;;;;;;6254541;22;20000;-75
2022/10/13 06:20:05;;;;;;;20.45;12.25;;;12.10;99.90;;;;;;6255286;22;20008;-75
2022/10/13 06:22:32;;;;;;;18.52;11.68;;;12.30;99.90;;;;;;6255409;22;20007;-75
2022/10/13 06:24:58;;;;;;;20.50;11.45;;;12.30;99.90;;;;;;6255410;22;20047;-75
2022/10/13 06:27:23;;;;;;;20.33;12.00;;;12.40;99.90;;;;;;6255531;22;20000;-75
2022/10/13 06:29:52;;;;;;;18.65;11.98;;;12.50;99.90;;;;;;6253957;22;20193;-75
2022/10/13 06:32:18;;;;;;;20.65;11.65;;;12.50;99.90;;;;;;6254217;23;20000;-75
2022/10/13 06:34:44;;;;;;;23.25;12.00;;;12.60;99.90;;;;;;6254780;22;20151;-77
2022/10/13 06:37:09;;;;;;;24.65;11.95;;;12.60;99.90;;;;;;6255292;22;20163;-75
2022/10/13 06:39:35;;;;;;;17.35;11.10;;;12.60;99.90;;;;;;6254868;22;20008;-73
2022/10/13 06:42:03;;;;;;;19.15;11.05;;;12.60;99.90;;;;;;6255034;22;19984;-74
2022/10/13 06:44:32;;;;;;;18.75;12.07;;;12.60;99.90;;;;;;6255451;22;20293;-74
2022/10/13 06:47:02;;;;;;;19.13;11.48;;;12.60;99.90;;;;;;6254050;22;20289;-74
2022/10/13 06:49:28;;;;;;;19.38;10.70;;;12.60;99.90;;;;;;6253678;22;20004;-75
2022/10/13 06:51:54;;;;;;;19.67;11.13;;;12.70;99.90;;;;;;6253205;22;20452;-75
2022/10/13 06:54:20;;;;;;;24.17;12.15;;;12.70;99.90;;;;;;6253903;22;20000;-74
2022/10/13 06:56:46;;;;;;;16.42;10.82;;;12.80;99.90;;;;;;6252933;22;20000;-74
2022/10/13 06:59:11;;;;;;;19.20;11.57;;;12.80;99.90;;;;;;6254434;22;19996;-81
2022/10/13 07:01:38;;;;;;;23.20;12.02;;;12.90;99.90;;;;;;6252978;22;20023;-75
2022/10/13 07:04:13;;;;;;;25.45;12.02;;;12.90;99.90;;;;;;6253873;22;20034;-79
2022/10/13 07:06:39;;;;;;;19.77;11.73;;;12.90;99.90;;;;;;6253379;22;20007;-76
2022/10/13 07:09:06;;;;;;;19.33;11.23;;;12.90;99.90;;;;;;6253662;22;20055;-75
2022/10/13 07:11:32;;;;;;;17.95;10.98;;;12.90;99.90;;;;;;6277698;22;20202;-75
2022/10/13 07:13:58;;;;;;;23.95;12.27;;;13.00;99.90;;;;;;6253630;22;20313;-76
2022/10/13 07:16:24;;;;;;;21.52;12.07;;;13.00;99.90;;;;;;6254223;22;20285;-76
2022/10/13 07:18:51;;;;;;;21.42;12.55;;;13.00;99.90;;;;;;6251704;23;20042;-75
2022/10/13 07:21:17;;;;;;;19.52;11.18;;;13.00;99.90;;;;;;6277392;22;20285;-75
2022/10/13 07:23:43;;;;;;;20.30;11.00;;;13.20;99.90;;;;;;6251577;23;20000;-75
2022/10/13 07:26:11;;;;;;;22.55;11.73;;;13.20;99.90;;;;;;6252113;23;20071;-76
2022/10/13 07:28:38;;;;;;;20.92;10.70;;;13.30;99.90;;;;;;6276841;22;20039;-76
2022/10/13 07:31:16;;;;;;;20.15;11.15;;;13.30;99.90;;;;;;6277351;22;20039;-74
2022/10/13 07:33:43;;;;;;;21.08;10.90;;;13.40;99.90;;;;;;6276679;22;20020;-76
2022/10/13 07:36:09;;;;;;;19.10;11.13;;;13.50;99.90;;;;;;6251606;23;20015;-76
2022/10/13 07:38:36;;;;;;;25.55;12.45;;;13.50;99.90;;;;;;6253527;22;20175;-75
2022/10/13 07:41:04;;;;;;;18.95;11.15;;;13.60;99.90;;;;;;6253567;22;20004;-75
2022/10/13 07:43:29;;;;;;;23.20;12.98;;;13.70;99.90;;;;;;6253139;22;20011;-74
2022/10/13 07:45:58;;;;;;;24.02;12.43;;;13.70;99.90;;;;;;6251138;23;20016;-76
2022/10/13 07:48:27;;;;;;;20.98;12.10;;;13.70;99.90;;;;;;6253631;22;20031;-76
2022/10/13 07:50:53;;;;;;;23.13;11.85;;;13.60;99.90;;;;;;6251733;23;20000;-77
2022/10/13 07:53:19;;;;;;;27.58;13.07;;;13.70;99.90;;;;;;6253329;22;20006;-75
2022/10/13 07:55:44;;;;;;;26.33;13.13;;;13.80;99.90;;;;;;6251758;22;20008;-77
2022/10/13 07:58:10;;;;;;;24.92;13.02;;;13.80;99.90;;;;;;6253054;22;19996;-76
2022/10/13 08:00:36;;;;;;;22.02;13.30;;;13.90;99.90;;;;;;6253468;22;20148;-76
2022/10/13 08:03:02;;;;;;;24.40;13.75;;;14.10;99.90;;;;;;6252716;22;20050;-75
2022/10/13 08:05:28;;;;;;;22.13;12.57;;;14.20;99.90;;;;;;6253306;23;20004;-76
2022/10/13 08:07:54;;;;;;;21.63;11.30;;;14.40;99.90;;;;;;6252522;23;20290;-77
2022/10/13 08:10:20;;;;;;;19.40;11.23;;;14.50;99.90;;;;;;6251507;23;20004;-76
2022/10/13 08:12:46;;;;;;;16.83;10.82;;;14.50;99.90;;;;;;6252269;22;20000;-77
2022/10/13 08:15:12;;;;;;;20.35;12.27;;;14.60;99.90;;;;;;6252724;22;20007;-77
2022/10/13 08:17:38;;;;;;;21.92;12.45;;;14.70;99.90;;;;;;6225827;23;20014;-77
2022/10/13 08:20:05;;;;;;;22.15;12.85;;;14.60;99.90;;;;;;6252733;22;20004;-77
2022/10/13 08:22:33;;;;;;;22.50;11.77;;;14.70;99.90;;;;;;6252925;22;19992;-77
2022/10/13 08:25:00;;;;;;;27.13;17.97;;;14.70;99.90;;;;;;6252488;22;20011;-77
2022/10/13 08:27:27;;;;;;;21.40;11.85;;;14.70;99.90;;;;;;6276762;22;20004;-77
2022/10/13 08:29:53;;;;;;;18.27;10.88;;;14.70;99.90;;;;;;6250903;23;20209;-76
2022/10/13 08:32:21;;;;;;;18.50;10.75;;;14.80;99.90;;;;;;6251266;23;19988;-75
2022/10/13 08:34:48;;;;;;;18.83;11.50;;;14.90;99.90;;;;;;6250659;23;20035;-76
2022/10/13 08:37:17;;;;;;;22.13;11.48;;;15.10;99.90;;;;;;6251414;23;20305;-76
2022/10/13 08:39:44;;;;;;;18.52;10.45;;;15.20;99.90;;;;;;6251142;23;20083;-79
2022/10/13 08:42:19;;;;;;;17.08;10.05;;;15.40;99.90;;;;;;6252394;22;20237;-75
2022/10/13 08:45:06;;;;;;;16.48;9.57;;;15.60;99.90;;;;;;6251832;22;20000;-78
2022/10/13 08:47:55;;;;;;;18.15;11.50;;;15.70;99.90;;;;;;6252684;22;20051;-76
2022/10/13 08:50:27;;;;;;;20.73;10.27;;;15.90;99.90;;;;;;6253257;22;20007;-77
2022/10/13 08:52:58;;;;;;;19.63;10.27;;;16.00;99.90;;;;;;6252077;22;20275;-77
2022/10/13 08:55:34;;;;;;;19.52;11.25;;;16.20;99.90;;;;;;6252682;22;20020;-78
2022/10/13 08:58:01;;;;;;;17.90;11.02;;;16.20;99.90;;;;;;6251711;23;20079;-76
2022/10/13 09:00:28;;;;;;;13.23;7.33;;;16.40;99.90;;;;;;6252725;22;20014;-75
2022/10/13 09:03:10;;;;;;;14.30;8.05;;;16.60;99.90;;;;;;6275685;22;20058;-76
2022/10/13 09:05:44;;;;;;;13.77;7.40;;;16.90;99.90;;;;;;6252388;22;19997;-76
2022/10/13 09:08:18;;;;;;;20.02;9.13;;;17.00;99.90;;;;;;6252675;22;20274;-77
2022/10/13 09:10:50;;;;;;;16.98;7.28;;;17.10;99.90;;;;;;6251026;23;20025;-76
2022/10/13 09:13:19;;;;;;;13.70;7.82;;;17.10;99.90;;;;;;6252350;22;20055;-76
2022/10/13 09:15:46;;;;;;;15.07;8.00;;;17.10;99.90;;;;;;6251855;22;20007;-76
2022/10/13 09:18:15;;;;;;;13.60;6.75;;;17.10;99.90;;;;;;6252855;22;20078;-76
2022/10/13 09:20:41;;;;;;;12.98;6.15;;;17.20;99.90;;;;;;6251952;22;20056;-77
2022/10/13 09:23:13;;;;;;;13.23;7.05;;;17.30;99.90;;;;;;6253017;22;20007;-77
2022/10/13 09:25:41;;;;;;;12.18;5.07;;;17.40;99.90;;;;;;6250894;23;20185;-76
2022/10/13 09:28:39;;;;;;;11.00;5.47;;;17.40;99.90;;;;;;6252242;23;20044;-75
2022/10/13 09:31:12;;;;;;;;;;;17.30;99.90;;;;;;6252535;22;20026;-75
2022/10/13 09:33:38;;;;;;;10.27;5.03;;;17.20;99.90;;;;;;6252600;22;19939;-76
2022/10/13 09:36:10;;;;;;;12.68;5.65;;;17.20;99.90;;;;;;6250805;23;20008;-76
2022/10/13 09:38:37;;;;;;;13.82;5.20;;;17.10;99.90;;;;;;6252588;23;20015;-75
2022/10/13 09:41:14;;;;;;;10.73;4.80;;;17.10;99.90;;;;;;6251631;23;20307;-77
2022/10/13 09:43:55;;;;;;;10.45;5.07;;;17.10;99.90;;;;;;6276893;22;20278;-76
2022/10/13 09:46:26;;;;;;;9.10;4.70;;;17.10;99.90;;;;;;6251243;23;20155;-76
2022/10/13 09:49:40;;;;;;;10.68;5.03;;;17.30;99.90;;;;;;6252227;23;20000;-77
2022/10/13 09:52:11;;;;;;;13.18;4.82;;;17.50;99.90;;;;;;6252080;22;20003;-77
2022/10/13 09:54:43;;;;;;;11.98;5.55;;;17.80;99.90;;;;;;6252645;23;20019;-76
2022/10/13 09:57:16;;;;;;;11.73;4.65;;;17.80;99.90;;;;;;6252469;23;20047;-76
2022/10/13 09:59:48;;;;;;;12.00;6.20;;;17.90;99.90;;;;;;6252529;22;20498;-77
2022/10/13 10:02:37;;;;;;;7.93;4.47;;;18.00;99.90;;;;;;6225159;23;20012;-77
2022/10/13 10:05:29;;;;;;;27.52;18.30;;;18.00;99.90;;;;;;6252153;22;20008;-76
2022/10/13 10:08:11;;;;;;;9.95;5.57;;;18.10;99.90;;;;;;6250221;23;20010;-77
2022/10/13 10:10:39;;;;;;;9.70;5.65;;;18.20;99.90;;;;;;6250823;23;20043;-77
2022/10/13 10:13:11;;;;;;;9.30;4.60;;;18.40;99.90;;;;;;6250963;23;20254;-77
2022/10/13 10:15:57;;;;;;;12.13;4.70;;;18.40;99.90;;;;;;6251921;23;20208;-76
2022/10/13 10:18:52;;;;;;;10.68;4.60;;;18.20;99.90;;;;;;6253078;23;20011;-76
2022/10/13 10:21:49;;;;;;;9.85;4.25;;;18.30;99.90;;;;;;6254113;23;20011;-77
2022/10/13 10:24:47;;;;;;;10.00;4.00;;;18.20;99.90;;;;;;6242645;22;20186;-76
2022/10/13 10:27:31;;;;;;;12.40;5.43;;;18.00;99.90;;;;;;6200047;23;20287;-80
2022/10/13 10:30:11;;;;;;;9.88;5.00;;;17.90;99.90;;;;;;6253373;22;20033;-76
2022/10/13 10:32:52;;;;;;;10.20;4.47;;;17.90;99.90;;;;;;6252368;23;20007;-76
2022/10/13 10:35:55;;;;;;;11.57;4.50;;;18.00;99.90;;;;;;6252999;23;19996;-75
2022/10/13 10:38:27;;;;;;;11.03;4.40;;;18.00;99.90;;;;;;6265842;22;20058;-74
2022/10/13 10:41:05;;;;;;;12.43;5.28;;;18.00;99.90;;;;;;6253174;23;20390;-78
2022/10/13 10:43:30;;;;;;;6.63;4.07;;;18.10;99.90;;;;;;6253869;23;20001;-77
2022/10/13 10:45:58;;;;;;;10.88;4.97;;;18.30;99.90;;;;;;6252882;23;20018;-77
2022/10/13 10:48:36;;;;;;;13.57;4.82;;;18.50;99.90;;;;;;6253949;22;20016;-77
2022/10/13 10:51:06;;;;;;;9.70;4.40;;;18.50;99.90;;;;;;6253661;23;20001;-76
2022/10/13 10:53:57;;;;;;;8.50;4.03;;;18.50;99.90;;;;;;6252381;23;20049;-76
2022/10/13 10:56:39;;;;;;;10.48;3.78;;;18.50;99.90;;;;;;6253887;23;20095;-76
2022/10/13 10:59:28;;;;;;;7.70;4.18;;;18.50;99.90;;;;;;6253650;22;20016;-76
2022/10/13 11:02:05;;;;;;;8.32;4.65;;;18.70;99.90;;;;;;6253347;23;20316;-77
2022/10/13 11:04:37;;;;;;;12.27;4.28;;;18.80;99.90;;;;;;6253551;23;20000;-77
2022/10/13 11:07:03;;;;;;;7.43;4.05;;;18.80;99.90;;;;;;6253238;23;20189;-78
2022/10/13 11:09:41;;;;;;;9.55;4.38;;;18.80;99.90;;;;;;6252146;23;20004;-79
2022/10/13 11:12:19;;;;;;;7.85;4.03;;;18.70;99.90;;;;;;6252712;23;20004;-77
2022/10/13 11:15:07;;;;;;;9.98;4.22;;;18.60;99.90;;;;;;6251874;23;20118;-76
2022/10/13 11:17:38;;;;;;;9.98;3.95;;;18.60;99.90;;;;;;6253412;22;20000;-78
2022/10/13 11:20:19;;;;;;;8.63;4.18;;;18.70;99.90;;;;;;6276604;22;20071;-76
2022/10/13 11:22:57;;;;;;;8.32;4.50;;;19.00;99.90;;;;;;6252669;23;20019;-77
2022/10/13 11:25:44;;;;;;;11.65;4.28;;;19.30;99.90;;;;;;6252532;23;20007;-76
2022/10/13 11:28:22;;;;;;;11.40;4.57;;;19.20;99.90;;;;;;6253377;23;20011;-76
2022/10/13 11:30:49;;;;;;;7.75;4.15;;;19.20;99.90;;;;;;6251753;23;20293;-77
2022/10/13 11:33:31;;;;;;;9.13;4.15;;;19.40;99.90;;;;;;6253414;22;20000;-77
2022/10/13 11:35:57;;;;;;;8.82;4.10;;;19.40;99.90;;;;;;6253151;23;20006;-77
2022/10/13 11:38:35;;;;;;;7.60;3.60;;;19.40;99.90;;;;;;6277310;22;20001;-77
2022/10/13 11:41:09;;;;;;;14.20;6.40;;;19.40;99.90;;;;;;6277146;22;20000;-77
2022/10/13 11:44:06;;;;;;;15.55;8.73;;;19.50;99.90;;;;;;6251677;23;20000;-76
2022/10/13 11:46:56;;;;;;;10.95;5.45;;;19.60;99.90;;;;;;6252625;23;20015;-77
2022/10/13 11:50:01;;;;;;;8.30;4.07;;;19.80;99.90;;;;;;6253248;23;20004;-77
2022/10/13 11:52:47;;;;;;;10.80;5.32;;;19.70;99.90;;;;;;6253683;22;20004;-77
2022/10/13 11:55:31;;;;;;;9.57;5.18;;;19.60;99.90;;;;;;6253439;23;20004;-76
2022/10/13 11:58:15;;;;;;;7.13;4.18;;;19.60;99.90;;;;;;6252227;23;20030;-75
2022/10/13 12:00:51;;;;;;;8.05;3.95;;;19.90;99.80;;;;;;6252946;23;20031;-75
2022/10/13 12:03:29;;;;;;;9.23;4.38;;;20.40;99.30;;;;;;6252998;22;20036;-77
2022/10/13 12:06:00;;;;;;;;;;;20.60;99.00;;;;;;6277654;22;20261;-78
2022/10/13 12:08:28;;;;;;;9.20;5.10;;;21.10;98.40;;;;;;6252815;23;20066;-76
2022/10/13 12:10:56;;;;;;;8.25;4.38;;;21.20;98.30;;;;;;6252671;22;20000;-76
2022/10/13 12:13:27;;;;;;;5.22;3.40;;;21.20;97.80;;;;;;6277004;22;20117;-77
2022/10/13 12:16:04;;;;;;;8.45;3.60;;;20.90;97.90;;;;;;6276718;22;20030;-76
2022/10/13 12:18:36;;;;;;;8.85;4.05;;;20.70;98.50;;;;;;6252664;23;20038;-77
2022/10/13 12:21:23;;;;;;;7.47;3.30;;;20.70;97.90;;;;;;6250562;23;19999;-75
2022/10/13 12:23:51;;;;;;;6.50;3.78;;;20.90;97.90;;;;;;6252851;23;20004;-77
2022/10/13 12:26:20;;;;;;;6.68;3.55;;;21.30;97.50;;;;;;6251129;23;20027;-77
2022/10/13 12:29:02;;;;;;;7.90;4.00;;;21.40;97.00;;;;;;6253003;22;20015;-76
2022/10/13 12:31:46;;;;;;;9.02;4.03;;;21.50;96.80;;;;;;6251034;23;20004;-76
2022/10/13 12:34:24;;;;;;;8.50;3.72;;;21.70;96.60;;;;;;6250756;23;20008;-75
2022/10/13 12:36:57;;;;;;;9.95;4.07;;;22.00;96.00;;;;;;6252348;23;20027;-74
2022/10/13 12:39:25;;;;;;;11.98;3.80;;;22.30;95.50;;;;;;6252644;23;20008;-75
2022/10/13 12:41:53;;;;;;;8.82;3.80;;;22.30;94.90;;;;;;6252041;23;20189;-76
2022/10/13 12:44:28;;;;;;;8.17;3.63;;;22.50;95.00;;;;;;6252785;22;20055;-76
2022/10/13 12:46:57;;;;;;;6.28;3.20;;;23.50;93.80;;;;;;6252247;23;20000;-76
2022/10/13 12:49:34;;;;;;;7.53;4.07;;;24.70;92.70;;;;;;6252668;22;20028;-76
2022/10/13 12:52:15;;;;;;;10.20;3.78;;;25.70;91.00;;;;;;6252812;22;20004;-76
2022/10/13 12:54:50;;;;;;;9.52;3.85;;;25.70;89.10;;;;;;6253476;22;20001;-76
2022/10/13 12:57:36;;;;;;;9.25;3.38;;;25.40;89.10;;;;;;6280423;22;20053;-78
2022/10/13 13:00:27;;;;;;;10.57;3.42;;;25.40;88.90;;;;;;6252344;22;20012;-78
2022/10/13 13:02:59;;;;;;;7.97;3.45;;;25.00;88.50;;;;;;6251650;23;20332;-76
2022/10/13 13:05:32;;;;;;;8.90;3.53;;;24.60;89.30;;;;;;6252339;22;19996;-76
2022/10/13 13:08:02;;;;;;;5.72;3.15;;;24.30;89.60;;;;;;6275506;22;20043;-76
2022/10/13 13:10:28;;;;;;;8.88;3.35;;;23.90;90.10;;;;;;6251654;23;20232;-76
2022/10/13 13:12:55;;;;;;;7.88;3.83;;;23.50;90.70;;;;;;6251970;23;20000;-77
2022/10/13 13:15:24;;;;;;;6.38;3.40;;;23.30;91.20;;;;;;6251130;23;20000;-77
2022/10/13 13:17:54;;;;;;;9.05;3.35;;;23.00;91.70;;;;;;6252331;23;20031;-76
2022/10/13 13:20:29;;;;;;;9.57;3.58;;;22.90;92.10;;;;;;6252460;23;20052;-77
2022/10/13 13:22:56;;;;;;;9.32;3.40;;;22.70;92.00;;;;;;6251849;23;20046;-76
2022/10/13 13:25:22;;;;;;;7.22;4.38;;;22.20;92.60;;;;;;6252577;23;20111;-77
2022/10/13 13:27:48;;;;;;;21.20;16.70;;;22.00;93.20;;;;;;6252848;23;20008;-76
2022/10/13 13:30:18;;;;;;;9.40;3.88;;;21.70;93.60;;;;;;6252281;22;20000;-77
2022/10/13 13:32:44;;;;;;;10.25;3.60;;;21.40;94.20;;;;;;6252016;22;20079;-77
2022/10/13 13:35:10;;;;;;;8.60;3.95;;;21.10;94.70;;;;;;6251247;23;20003;-75
2022/10/13 13:37:51;;;;;;;8.07;3.83;;;20.80;95.50;;;;;;6250755;23;19996;-76
2022/10/13 13:40:26;;;;;;;11.98;3.90;;;20.40;96.20;;;;;;6252497;22;20050;-83
2022/10/13 13:42:52;;;;;;;6.63;3.55;;;20.00;96.80;;;;;;6250714;23;20011;-81
2022/10/13 13:45:21;;;;;;;12.90;5.07;;;19.90;97.30;;;;;;6252252;22;20012;-75
2022/10/13 13:47:48;;;;;;;9.23;4.20;;;19.90;97.50;;;;;;6253199;22;20007;-74
2022/10/13 13:50:24;;;;;;;12.32;4.65;;;20.00;97.60;;;;;;6251959;23;20000;-76
2022/10/13 13:52:57;;;;;;;7.00;4.00;;;20.00;97.60;;;;;;6253049;23;20007;-76
2022/10/13 13:55:23;;;;;;;11.48;4.40;;;20.00;98.20;;;;;;6254782;23;19996;-76
2022/10/13 13:57:49;;;;;;;6.63;4.20;;;20.00;98.10;;;;;;6253979;22;20000;-76
2022/10/13 14:00:15;;;;;;;9.73;4.20;;;20.00;98.20;;;;;;6252982;22;20011;-76
2022/10/13 14:02:43;;;;;;;10.95;4.40;;;19.80;98.60;;;;;;6253824;22;20014;-76
2022/10/13 14:05:11;;;;;;;10.50;4.70;;;19.70;98.70;;;;;;6278004;22;19997;-76
2022/10/13 14:07:37;;;;;;;11.25;5.15;;;19.60;98.90;;;;;;6254108;23;20012;-77
2022/10/13 14:10:04;;;;;;;10.73;5.00;;;19.50;99.40;;;;;;6253530;23;20000;-77
2022/10/13 14:12:31;;;;;;;13.23;4.97;;;19.50;99.40;;;;;;6253559;23;19996;-78
2022/10/13 14:14:57;;;;;;;9.77;5.00;;;19.60;99.20;;;;;;6227188;23;20056;-77
2022/10/13 14:17:24;;;;;;;10.23;4.80;;;19.50;99.60;;;;;;6227269;23;20004;-76
2022/10/13 14:19:50;;;;;;;10.48;5.40;;;19.40;99.70;;;;;;6254082;23;20019;-76
2022/10/13 14:22:15;;;;;;;11.68;6.25;;;19.50;99.90;;;;;;6253525;23;20031;-76
2022/10/13 14:24:41;;;;;;;9.90;4.53;;;19.50;99.90;;;;;;6253897;23;20000;-76
2022/10/13 14:27:08;;;;;;;10.00;4.60;;;19.60;99.80;;;;;;6253338;23;20018;-76
2022/10/13 14:29:35;;;;;;;10.77;4.90;;;19.60;99.80;;;;;;6253707;23;20270;-77
2022/10/13 14:32:00;;;;;;;9.68;5.18;;;19.60;99.60;;;;;;6254889;23;19996;-76
2022/10/13 14:34:28;;;;;;;10.57;4.85;;;19.50;99.90;;;;;;6254278;23;20007;-77
2022/10/13 14:36:53;;;;;;;15.35;5.22;;;19.40;99.90;;;;;;6255229;22;20004;-76
2022/10/13 14:39:20;;;;;;;11.18;5.50;;;19.40;99.90;;;;;;6254846;23;20077;-77
2022/10/13 14:41:46;;;;;;;12.75;5.15;;;19.30;99.90;;;;;;6253985;23;20019;-75
2022/10/13 14:44:12;;;;;;;9.57;5.13;;;19.20;99.90;;;;;;6253211;23;20003;-76
2022/10/13 14:46:42;;;;;;;10.02;5.57;;;19.00;99.90;;;;;;6278982;22;19988;-75
2022/10/13 14:49:11;;;;;;;12.13;5.72;;;18.90;99.90;;;;;;6255062;23;20056;-76
2022/10/13 14:51:41;;;;;;;9.35;5.30;;;18.80;99.90;;;;;;6255207;23;20167;-76
2022/10/13 14:54:07;;;;;;;9.75;5.45;;;18.70;99.90;;;;;;6254837;22;20003;-76
2022/10/13 14:56:33;;;;;;;12.60;5.35;;;18.60;99.90;;;;;;6255200;23;20294;-76
2022/10/13 14:59:01;;;;;;;9.60;4.80;;;18.50;99.90;;;;;;6254725;23;20008;-76
2022/10/13 15:01:35;;;;;;;14.95;5.90;;;18.50;99.90;;;;;;6254860;23;20202;-77
2022/10/13 15:04:02;;;;;;;11.70;5.82;;;18.50;99.90;;;;;;6254690;23;20051;-76
2022/10/13 15:06:30;;;;;;;8.32;5.25;;;18.50;99.90;;;;;;6255359;23;20023;-77
2022/10/13 15:08:56;;;;;;;7.82;5.20;;;18.40;99.90;;;;;;6228194;23;20007;-77
2022/10/13 15:11:23;;;;;;;13.35;6.13;;;18.30;99.90;;;;;;6228520;23;20189;-75
2022/10/13 15:13:49;;;;;;;9.15;4.90;;;18.20;99.90;;;;;;6228536;23;20023;-75
2022/10/13 15:16:16;;;;;;;9.05;4.78;;;18.10;99.90;;;;;;6254612;23;20294;-76
2022/10/13 15:18:42;;;;;;;10.98;4.53;;;18.10;99.90;;;;;;6254784;23;20028;-76
2022/10/13 15:21:08;;;;;;;9.75;4.70;;;18.10;99.90;;;;;;6254705;23;20000;-75
2022/10/13 15:23:34;;;;;;;9.23;4.60;;;18.00;99.90;;;;;;6228428;23;20004;-76
2022/10/13 15:26:01;;;;;;;10.63;4.70;;;18.00;99.90;;;;;;6254141;23;20183;-75
2022/10/13 15:28:38;;;;;;;10.60;5.15;;;18.00;99.90;;;;;;6228932;23;20004;-76
2022/10/13 15:31:05;;;;;;;12.18;5.18;;;18.00;99.90;;;;;;6254465;23;20039;-80
2022/10/13 15:33:32;;;;;;;11.50;5.15;;;18.00;99.90;;;;;;6254530;23;20015;-75
2022/10/13 15:35:58;;;;;;;9.90;4.82;;;17.90;99.90;;;;;;6227732;23;20286;-76
2022/10/13 15:38:24;;;;;;;12.95;5.45;;;17.90;99.90;;;;;;6254593;23;20004;-76
2022/10/13 15:40:50;;;;;;;9.55;4.97;;;17.80;99.90;;;;;;6255047;23;20004;-75
2022/10/13 15:43:16;;;;;;;11.98;5.43;;;17.60;99.90;;;;;;6227980;23;20062;-76
2022/10/13 15:45:51;;;;;;;10.18;5.00;;;17.50;99.90;;;;;;6255184;23;20003;-76
2022/10/13 15:48:17;;;;;;;10.88;4.80;;;17.50;99.90;;;;;;6254634;23;20007;-75
2022/10/13 15:50:43;;;;;;;10.90;5.82;;;17.40;99.90;;;;;;6254882;23;20000;-75
2022/10/13 15:53:09;;;;;;;12.27;5.95;;;17.30;99.90;;;;;;6254196;23;20322;-76
2022/10/13 15:55:34;;;;;;;10.05;6.05;;;17.30;99.90;;;;;;6229419;23;20007;-76
2022/10/13 15:58:00;;;;;;;13.88;6.28;;;17.20;99.90;;;;;;6254614;23;19996;-76
2022/10/13 16:00:26;;;;;;;10.68;5.38;;;17.10;99.90;;;;;;6254716;23;20004;-76
2022/10/13 16:02:52;;;;;;;10.55;5.97;;;17.10;99.90;;;;;;6254407;23;20010;-76
2022/10/13 16:05:18;;;;;;;11.68;5.82;;;17.10;99.90;;;;;;6253964;23;20000;-76
2022/10/13 16:07:44;;;;;;;11.65;6.25;;;17.00;99.90;;;;;;6254544;23;20004;-77
2022/10/13 16:10:12;;;;;;;11.18;6.13;;;17.00;99.90;;;;;;6253657;23;19995;-76
2022/10/13 16:12:39;;;;;;;10.80;5.72;;;17.00;99.90;;;;;;6254051;23;20008;-77
2022/10/13 16:15:06;;;;;;;13.77;6.82;;;16.90;99.90;;;;;;6252354;23;20185;-77
2022/10/13 16:17:36;;;;;;;14.52;7.32;;;16.90;99.90;;;;;;6254891;23;20000;-78
2022/10/13 16:20:04;;;;;;;10.50;6.57;;;16.80;99.90;;;;;;6253613;23;20020;-76
2022/10/13 16:22:31;;;;;;;13.68;6.93;;;16.80;99.90;;;;;;6254114;23;20004;-77
2022/10/13 16:24:56;;;;;;;16.90;11.18;;;16.70;99.90;;;;;;6254964;23;20297;-76
2022/10/13 16:27:22;;;;;;;15.07;8.30;;;16.70;99.90;;;;;;6253583;23;20079;-76
2022/10/13 16:29:48;;;;;;;9.63;6.43;;;16.70;99.90;;;;;;6227738;23;20050;-77
2022/10/13 16:32:14;;;;;;;12.05;7.18;;;16.60;99.90;;;;;;6253666;23;20004;-78
2022/10/13 16:34:40;;;;;;;13.80;7.25;;;16.60;99.90;;;;;;6254244;23;20007;-76
2022/10/13 16:37:05;;;;;;;12.80;7.07;;;16.60;99.90;;;;;;6227316;23;20030;-75
2022/10/13 16:39:31;;;;;;;10.82;6.80;;;16.60;99.90;;;;;;6255274;23;20250;-77
2022/10/13 16:41:57;;;;;;;15.43;7.53;;;16.50;99.90;;;;;;6228252;23;20004;-75
2022/10/13 16:44:23;;;;;;;13.93;7.45;;;16.50;99.90;;;;;;6254219;23;20056;-75
2022/10/13 16:46:51;;;;;;;15.57;8.27;;;16.40;99.90;;;;;;6227875;23;20026;-75
2022/10/13 16:49:17;;;;;;;16.30;8.70;;;16.40;99.90;;;;;;6253994;23;20162;-77
2022/10/13 16:51:42;;;;;;;14.25;7.15;;;16.30;99.90;;;;;;6252781;23;20007;-75
2022/10/13 16:54:08;;;;;;;11.85;7.32;;;16.30;99.90;;;;;;6227268;23;20000;-76
2022/10/13 16:56:34;;;;;;;18.05;10.02;;;16.30;99.90;;;;;;6254446;23;20091;-74
2022/10/13 16:59:02;;;;;;;15.90;11.52;;;16.20;99.90;;;;;;6227218;23;20012;-76
2022/10/13 17:01:29;;;;;;;14.48;9.35;;;16.20;99.90;;;;;;6253821;23;20004;-75
2022/10/13 17:03:55;;;;;;;18.90;10.95;;;16.10;99.90;;;;;;6254434;23;20274;-75
2022/10/13 17:06:24;;;;;;;16.98;10.73;;;16.00;99.90;;;;;;6252376;23;19996;-75
2022/10/13 17:08:54;;;;;;;24.10;13.60;;;16.00;99.90;;;;;;6254412;23;20042;-76
2022/10/13 17:11:23;;;;;;;23.85;11.25;;;15.90;99.90;;;;;;6227208;23;20166;-74
2022/10/13 17:13:49;;;;;;;16.98;11.25;;;15.80;99.90;;;;;;6254533;23;20073;-74
2022/10/13 17:16:16;;;;;;;18.17;11.20;;;15.70;99.90;;;;;;6253362;23;20000;-77
2022/10/13 17:18:43;;;;;;;23.13;16.25;;;15.70;99.90;;;;;;6254669;23;20024;-76
2022/10/13 17:21:13;;;;;;;35.17;29.10;;;15.70;99.90;;;;;;6252689;23;20004;-77
2022/10/13 17:23:39;;;;;;;51.60;39.33;;;15.70;99.90;;;;;;6254242;23;20004;-75
2022/10/13 17:26:08;;;;;;;25.55;15.95;;;15.60;99.90;;;;;;6252795;23;20000;-75
2022/10/13 17:28:35;;;;;;;21.88;13.32;;;15.60;99.90;;;;;;6256019;23;20194;-75
2022/10/13 17:31:05;;;;;;;20.55;12.82;;;15.50;99.90;;;;;;6255984;23;19992;-75
2022/10/13 17:33:33;;;;;;;27.98;18.85;;;15.50;99.90;;;;;;6256683;23;20004;-75
2022/10/13 17:36:00;;;;;;;26.33;16.95;;;15.50;99.90;;;;;;6256180;23;20006;-76
2022/10/13 17:38:27;;;;;;;23.75;14.88;;;15.50;99.90;;;;;;6255178;23;19999;-76
2022/10/13 17:40:53;;;;;;;19.88;11.57;;;15.40;99.90;;;;;;6256389;23;20000;-76
2022/10/13 17:43:18;;;;;;;16.25;10.63;;;15.30;99.90;;;;;;6228874;23;20301;-76
2022/10/13 17:45:44;;;;;;;16.75;10.90;;;15.30;99.90;;;;;;6255367;23;20081;-75
2022/10/13 17:48:10;;;;;;;15.57;10.18;;;15.30;99.90;;;;;;6228941;23;20050;-78
2022/10/13 17:50:36;;;;;;;17.00;11.07;;;15.30;99.90;;;;;;6256155;23;19996;-75
2022/10/13 17:53:02;;;;;;;16.23;10.52;;;15.20;99.90;;;;;;6254681;23;20289;-77
2022/10/13 17:55:30;;;;;;;18.30;10.93;;;15.20;99.90;;;;;;6255039;23;20309;-77